Sand Key, FL current weather conditions

sailwx.info

Wind from 190 at 24 knots gusting 27

Air temperature 25.2° C
Dewpoint 21.0° C

Last reported at 2017-Jan-22 06:50 UTC.
Time now 2017-Jan-22 08:08 UTC

Location: N 24°27' W 081°53'.
View on Google Maps.

See reports from other nearby stations

  
Tides and Currents Weather Stations Pressure Air Temp Water Temp Dewpoint Dewpoint Depression Visibility Wind Speed Wind Dir Waves Ship Positions
date/time (UTC)wind fromknots sea level pressurealtimeterstation pressurevisibilityair tempwater tempwave heightnotes
2017-Jan-22 06:50 190 24 gusting 27 25.2
2017-Jan-22 05:50 190 24 gusting 27 25.3
2017-Jan-22 04:50 190 20 gusting 25 25.4
2017-Jan-22 03:50 190 17 gusting 20 25.6
2017-Jan-22 02:50 170 18 gusting 20 25.4
2017-Jan-22 01:50 160 15 gusting 18 25.3
2017-Jan-22 00:50 150 11 gusting 13 25.2
2017-Jan-21 23:50 150 12 gusting 13 24.9
2017-Jan-21 22:50 160 12 gusting 13 24.8
2017-Jan-21 21:50 160 11 gusting 12 24.8
2017-Jan-21 20:50 180 11 gusting 13 24.7
2017-Jan-21 19:50 190 13 gusting 14 24.7
2017-Jan-21 18:50 200 13 gusting 17 24.6
2017-Jan-21 18:19 200 13 gusting 17 24.5
2017-Jan-21 18:14 200 13 gusting 17 24.5
2017-Jan-21 18:09 200 13 gusting 14 24.5
2017-Jan-21 18:04 200 13 gusting 17 24.5
2017-Jan-21 17:59 200 13 gusting 15 24.5
2017-Jan-21 17:49 200 13 gusting 17 24.5
2017-Jan-21 16:50 200 18 gusting 20 24.3
2017-Jan-21 15:50 200 17 gusting 20 24.3
2017-Jan-21 14:50 190 20 gusting 24 24.5
2017-Jan-21 13:50 190 15 gusting 19 24.4
2017-Jan-21 12:50 180 13 gusting 15 24.5
2017-Jan-21 11:50 190 12 gusting 13 24.5
2017-Jan-21 10:50 190 11 gusting 13 24.6
2017-Jan-21 09:50 170 9 gusting 11 24.7
2017-Jan-21 08:50 170 7 gusting 9 24.7
2017-Jan-21 07:50 180 9 gusting 12 24.9
2017-Jan-21 06:50 160 6 gusting 8 24.8
2017-Jan-21 05:50 170 9 gusting 12 24.5
2017-Jan-21 04:50 150 11 gusting 12 24.3
2017-Jan-21 03:50 140 8 gusting 11 24.4
2017-Jan-21 02:50 140 6 gusting 7 24.4
2017-Jan-21 01:50 120 4 gusting 5 24.3
2017-Jan-21 00:50 170 1 gusting 2 24.3
2017-Jan-20 23:50 190 5 gusting 6 24.4
2017-Jan-20 22:50 210 4 gusting 5 24.7
2017-Jan-20 21:50 200 5 gusting 6 24.8
2017-Jan-20 20:50 200 6 gusting 8 24.6
2017-Jan-20 19:50 200 6 gusting 9 24.6
2017-Jan-20 18:50 190 7 gusting 11 24.4
2017-Jan-20 17:50 190 6 gusting 8 24.3
2017-Jan-20 16:50 190 7 gusting 9 24.3
2017-Jan-20 15:50 190 7 gusting 9 24.2
2017-Jan-20 14:50 200 7 gusting 9 24.1
2017-Jan-20 13:50 210 7 gusting 9 24.0
2017-Jan-20 12:50 210 8 gusting 11 23.9
2017-Jan-20 11:50 200 11 gusting 13 23.9
2017-Jan-20 10:50 210 8 gusting 11 23.8
2017-Jan-20 09:50 210 12 gusting 13 23.9
2017-Jan-20 08:50 200 12 gusting 13 24.1